sensor_id;sensor_type;location;lat;lon;timestamp;temperature;humidity
11536;DHT22;5824;49.336;8.652;2024-02-28T00:01:51;6.90;1.00
11536;DHT22;5824;49.336;8.652;2024-02-28T00:04:18;6.70;1.00
11536;DHT22;5824;49.336;8.652;2024-02-28T00:06:44;7.00;1.00
11536;DHT22;5824;49.336;8.652;2024-02-28T00:09:11;6.70;1.00
11536;DHT22;5824;49.336;8.652;2024-02-28T00:11:45;6.80;1.00
11536;DHT22;5824;49.336;8.652;2024-02-28T00:14:12;6.60;1.00
11536;DHT22;5824;49.336;8.652;2024-02-28T00:16:44;7.10;1.00
11536;DHT22;5824;49.336;8.652;2024-02-28T00:19:10;6.50;1.00
11536;DHT22;5824;49.336;8.652;2024-02-28T00:21:40;6.50;1.00
11536;DHT22;5824;49.336;8.652;2024-02-28T00:24:06;6.40;1.00
11536;DHT22;5824;49.336;8.652;2024-02-28T00:26:32;6.40;1.00
11536;DHT22;5824;49.336;8.652;2024-02-28T00:28:58;6.50;1.00
11536;DHT22;5824;49.336;8.652;2024-02-28T00:31:23;6.50;1.00
11536;DHT22;5824;49.336;8.652;2024-02-28T00:33:49;6.60;1.00
11536;DHT22;5824;49.336;8.652;2024-02-28T00:36:14;6.40;1.00
11536;DHT22;5824;49.336;8.652;2024-02-28T00:38:43;6.00;1.00
11536;DHT22;5824;49.336;8.652;2024-02-28T00:41:08;6.00;1.00
11536;DHT22;5824;49.336;8.652;2024-02-28T00:43:34;6.40;1.00
11536;DHT22;5824;49.336;8.652;2024-02-28T00:46:00;6.10;1.00
11536;DHT22;5824;49.336;8.652;2024-02-28T00:48:25;4.60;1.00
11536;DHT22;5824;49.336;8.652;2024-02-28T00:50:52;5.90;1.00
11536;DHT22;5824;49.336;8.652;2024-02-28T00:53:18;5.90;1.00
11536;DHT22;5824;49.336;8.652;2024-02-28T00:55:43;6.40;1.00
11536;DHT22;5824;49.336;8.652;2024-02-28T00:58:10;6.20;1.00
11536;DHT22;5824;49.336;8.652;2024-02-28T01:00:35;6.20;1.00
11536;DHT22;5824;49.336;8.652;2024-02-28T01:03:01;5.80;1.00
11536;DHT22;5824;49.336;8.652;2024-02-28T01:05:29;5.80;1.00
11536;DHT22;5824;49.336;8.652;2024-02-28T01:07:55;5.70;1.00
11536;DHT22;5824;49.336;8.652;2024-02-28T01:10:20;5.60;1.00
11536;DHT22;5824;49.336;8.652;2024-02-28T01:12:46;5.50;1.00
11536;DHT22;5824;49.336;8.652;2024-02-28T01:15:12;5.50;1.00
11536;DHT22;5824;49.336;8.652;2024-02-28T01:17:38;5.50;1.00
11536;DHT22;5824;49.336;8.652;2024-02-28T01:20:05;5.50;1.00
11536;DHT22;5824;49.336;8.652;2024-02-28T01:22:32;5.50;1.00
11536;DHT22;5824;49.336;8.652;2024-02-28T01:24:58;5.90;1.00
11536;DHT22;5824;49.336;8.652;2024-02-28T01:27:23;5.60;1.00
11536;DHT22;5824;49.336;8.652;2024-02-28T01:29:49;5.60;1.00
11536;DHT22;5824;49.336;8.652;2024-02-28T01:32:14;5.60;1.00
11536;DHT22;5824;49.336;8.652;2024-02-28T01:34:39;5.50;1.00
11536;DHT22;5824;49.336;8.652;2024-02-28T01:37:05;5.50;1.00
11536;DHT22;5824;49.336;8.652;2024-02-28T01:39:30;5.50;1.00
11536;DHT22;5824;49.336;8.652;2024-02-28T01:41:56;5.70;1.00
11536;DHT22;5824;49.336;8.652;2024-02-28T01:44:22;5.40;1.00
11536;DHT22;5824;49.336;8.652;2024-02-28T01:46:48;5.60;1.00
11536;DHT22;5824;49.336;8.652;2024-02-28T01:49:14;5.30;1.00
11536;DHT22;5824;49.336;8.652;2024-02-28T01:51:41;5.20;1.00
11536;DHT22;5824;49.336;8.652;2024-02-28T01:54:07;5.00;1.00
11536;DHT22;5824;49.336;8.652;2024-02-28T01:56:34;5.50;1.00
11536;DHT22;5824;49.336;8.652;2024-02-28T01:59:00;5.20;1.00
11536;DHT22;5824;49.336;8.652;2024-02-28T02:01:27;5.20;1.00
11536;DHT22;5824;49.336;8.652;2024-02-28T02:03:53;5.30;1.00
11536;DHT22;5824;49.336;8.652;2024-02-28T02:06:19;5.30;1.00
11536;DHT22;5824;49.336;8.652;2024-02-28T02:08:45;5.50;1.00
11536;DHT22;5824;49.336;8.652;2024-02-28T02:11:12;5.40;1.00
11536;DHT22;5824;49.336;8.652;2024-02-28T02:13:52;5.30;1.00
11536;DHT22;5824;49.336;8.652;2024-02-28T02:16:19;5.30;1.00
11536;DHT22;5824;49.336;8.652;2024-02-28T02:18:47;5.70;1.00
11536;DHT22;5824;49.336;8.652;2024-02-28T02:21:30;5.30;1.00
11536;DHT22;5824;49.336;8.652;2024-02-28T02:23:56;5.30;1.00
11536;DHT22;5824;49.336;8.652;2024-02-28T02:26:21;5.50;1.00
11536;DHT22;5824;49.336;8.652;2024-02-28T02:28:47;5.70;1.00
11536;DHT22;5824;49.336;8.652;2024-02-28T02:31:13;5.20;1.00
11536;DHT22;5824;49.336;8.652;2024-02-28T02:33:39;5.20;1.00
11536;DHT22;5824;49.336;8.652;2024-02-28T02:36:05;5.20;1.00
11536;DHT22;5824;49.336;8.652;2024-02-28T02:38:30;5.10;1.00
11536;DHT22;5824;49.336;8.652;2024-02-28T02:40:56;5.10;1.00
11536;DHT22;5824;49.336;8.652;2024-02-28T02:43:21;5.00;1.00
11536;DHT22;5824;49.336;8.652;2024-02-28T02:45:47;5.00;1.00
11536;DHT22;5824;49.336;8.652;2024-02-28T02:48:12;5.00;1.00
11536;DHT22;5824;49.336;8.652;2024-02-28T02:50:38;5.00;1.00
11536;DHT22;5824;49.336;8.652;2024-02-28T02:53:03;5.00;1.00
11536;DHT22;5824;49.336;8.652;2024-02-28T02:55:29;5.00;1.00
11536;DHT22;5824;49.336;8.652;2024-02-28T02:57:55;5.00;1.00
11536;DHT22;5824;49.336;8.652;2024-02-28T03:00:22;4.90;1.00
11536;DHT22;5824;49.336;8.652;2024-02-28T03:02:47;4.90;1.00
11536;DHT22;5824;49.336;8.652;2024-02-28T03:07:39;4.90;1.00
11536;DHT22;5824;49.336;8.652;2024-02-28T03:10:05;4.90;1.00
11536;DHT22;5824;49.336;8.652;2024-02-28T03:12:31;4.90;1.00
11536;DHT22;5824;49.336;8.652;2024-02-28T03:14:56;4.90;1.00
11536;DHT22;5824;49.336;8.652;2024-02-28T03:17:22;5.00;1.00
11536;DHT22;5824;49.336;8.652;2024-02-28T03:19:48;4.90;1.00
11536;DHT22;5824;49.336;8.652;2024-02-28T03:22:13;5.20;1.00
11536;DHT22;5824;49.336;8.652;2024-02-28T03:24:39;4.80;1.00
11536;DHT22;5824;49.336;8.652;2024-02-28T03:27:04;5.10;1.00
11536;DHT22;5824;49.336;8.652;2024-02-28T03:29:30;4.70;1.00
11536;DHT22;5824;49.336;8.652;2024-02-28T03:31:57;5.20;1.00
11536;DHT22;5824;49.336;8.652;2024-02-28T03:34:23;4.40;1.00
11536;DHT22;5824;49.336;8.652;2024-02-28T03:36:49;4.80;1.00
11536;DHT22;5824;49.336;8.652;2024-02-28T03:39:14;4.90;1.00
11536;DHT22;5824;49.336;8.652;2024-02-28T03:41:40;4.80;1.00
11536;DHT22;5824;49.336;8.652;2024-02-28T03:44:05;4.40;1.00
11536;DHT22;5824;49.336;8.652;2024-02-28T03:46:31;4.40;1.00
11536;DHT22;5824;49.336;8.652;2024-02-28T03:48:56;4.30;1.00
11536;DHT22;5824;49.336;8.652;2024-02-28T03:51:22;4.70;1.00
11536;DHT22;5824;49.336;8.652;2024-02-28T03:53:48;4.00;1.00
11536;DHT22;5824;49.336;8.652;2024-02-28T03:56:20;4.30;1.00
11536;DHT22;5824;49.336;8.652;2024-02-28T03:58:46;3.90;1.00
11536;DHT22;5824;49.336;8.652;2024-02-28T04:01:12;4.30;1.00
11536;DHT22;5824;49.336;8.652;2024-02-28T04:03:37;3.70;1.00
11536;DHT22;5824;49.336;8.652;2024-02-28T04:06:03;3.70;1.00
11536;DHT22;5824;49.336;8.652;2024-02-28T04:08:28;5.40;1.00
11536;DHT22;5824;49.336;8.652;2024-02-28T04:10:54;4.00;1.00
11536;DHT22;5824;49.336;8.652;2024-02-28T04:13:19;3.70;1.00
11536;DHT22;5824;49.336;8.652;2024-02-28T04:15:45;4.20;1.00
11536;DHT22;5824;49.336;8.652;2024-02-28T04:18:12;3.70;1.00
11536;DHT22;5824;49.336;8.652;2024-02-28T04:20:37;3.90;1.00
11536;DHT22;5824;49.336;8.652;2024-02-28T04:23:04;3.90;1.00
11536;DHT22;5824;49.336;8.652;2024-02-28T04:25:29;3.90;1.00
11536;DHT22;5824;49.336;8.652;2024-02-28T04:27:55;4.40;1.00
11536;DHT22;5824;49.336;8.652;2024-02-28T04:30:22;4.40;1.00
11536;DHT22;5824;49.336;8.652;2024-02-28T04:32:47;4.40;1.00
11536;DHT22;5824;49.336;8.652;2024-02-28T04:35:13;4.40;1.00
11536;DHT22;5824;49.336;8.652;2024-02-28T04:37:44;4.00;1.00
11536;DHT22;5824;49.336;8.652;2024-02-28T04:40:10;4.30;1.00
11536;DHT22;5824;49.336;8.652;2024-02-28T04:42:36;3.90;1.00
11536;DHT22;5824;49.336;8.652;2024-02-28T04:45:01;3.90;1.00
11536;DHT22;5824;49.336;8.652;2024-02-28T04:47:27;3.70;1.00
11536;DHT22;5824;49.336;8.652;2024-02-28T04:49:52;3.60;1.00
11536;DHT22;5824;49.336;8.652;2024-02-28T04:52:18;3.90;1.00
11536;DHT22;5824;49.336;8.652;2024-02-28T04:54:43;3.50;1.00
11536;DHT22;5824;49.336;8.652;2024-02-28T04:57:08;3.50;1.00
11536;DHT22;5824;49.336;8.652;2024-02-28T04:59:35;3.40;1.00
11536;DHT22;5824;49.336;8.652;2024-02-28T05:02:01;3.30;1.00
11536;DHT22;5824;49.336;8.652;2024-02-28T05:04:26;3.20;1.00
11536;DHT22;5824;49.336;8.652;2024-02-28T05:06:52;3.10;1.00
11536;DHT22;5824;49.336;8.652;2024-02-28T05:09:17;3.10;1.00
11536;DHT22;5824;49.336;8.652;2024-02-28T05:11:44;3.00;1.00
11536;DHT22;5824;49.336;8.652;2024-02-28T05:14:09;3.00;1.00
11536;DHT22;5824;49.336;8.652;2024-02-28T05:16:36;3.00;1.00
11536;DHT22;5824;49.336;8.652;2024-02-28T05:19:01;3.10;1.00
11536;DHT22;5824;49.336;8.652;2024-02-28T05:21:27;1.00;1.00
11536;DHT22;5824;49.336;8.652;2024-02-28T05:23:53;2.90;1.00
11536;DHT22;5824;49.336;8.652;2024-02-28T05:26:18;3.20;1.00
11536;DHT22;5824;49.336;8.652;2024-02-28T05:28:44;2.90;1.00
11536;DHT22;5824;49.336;8.652;2024-02-28T05:31:22;2.90;1.00
11536;DHT22;5824;49.336;8.652;2024-02-28T05:33:52;2.80;1.00
11536;DHT22;5824;49.336;8.652;2024-02-28T05:36:17;2.80;1.00
11536;DHT22;5824;49.336;8.652;2024-02-28T05:38:44;2.70;1.00
11536;DHT22;5824;49.336;8.652;2024-02-28T05:41:09;2.70;1.00
11536;DHT22;5824;49.336;8.652;2024-02-28T05:43:37;2.80;1.00
11536;DHT22;5824;49.336;8.652;2024-02-28T05:46:02;3.20;1.00
11536;DHT22;5824;49.336;8.652;2024-02-28T05:48:28;2.70;1.00
11536;DHT22;5824;49.336;8.652;2024-02-28T05:50:54;3.10;1.00
11536;DHT22;5824;49.336;8.652;2024-02-28T05:53:20;2.80;1.00
11536;DHT22;5824;49.336;8.652;2024-02-28T05:55:46;0.80;1.00
11536;DHT22;5824;49.336;8.652;2024-02-28T05:58:12;3.20;1.00
11536;DHT22;5824;49.336;8.652;2024-02-28T06:00:38;2.80;1.00
11536;DHT22;5824;49.336;8.652;2024-02-28T06:03:04;2.70;1.00
11536;DHT22;5824;49.336;8.652;2024-02-28T06:05:29;2.60;1.00
11536;DHT22;5824;49.336;8.652;2024-02-28T06:07:55;2.70;1.00
11536;DHT22;5824;49.336;8.652;2024-02-28T06:10:20;3.20;1.00
11536;DHT22;5824;49.336;8.652;2024-02-28T06:12:46;3.10;1.00
11536;DHT22;5824;49.336;8.652;2024-02-28T06:15:12;2.90;1.00
11536;DHT22;5824;49.336;8.652;2024-02-28T06:17:37;3.00;1.00
11536;DHT22;5824;49.336;8.652;2024-02-28T06:20:03;3.20;1.00
11536;DHT22;5824;49.336;8.652;2024-02-28T06:22:29;3.20;1.00
11536;DHT22;5824;49.336;8.652;2024-02-28T06:24:54;3.30;1.00
11536;DHT22;5824;49.336;8.652;2024-02-28T06:27:20;3.80;1.00
11536;DHT22;5824;49.336;8.652;2024-02-28T06:29:45;3.70;1.00
11536;DHT22;5824;49.336;8.652;2024-02-28T06:32:11;3.80;1.00
11536;DHT22;5824;49.336;8.652;2024-02-28T06:34:37;3.90;1.00
11536;DHT22;5824;49.336;8.652;2024-02-28T06:37:02;3.90;1.00
11536;DHT22;5824;49.336;8.652;2024-02-28T06:39:29;4.10;1.00
11536;DHT22;5824;49.336;8.652;2024-02-28T06:41:54;4.50;1.00
11536;DHT22;5824;49.336;8.652;2024-02-28T06:44:20;4.00;1.00
11536;DHT22;5824;49.336;8.652;2024-02-28T06:46:45;4.40;1.00
11536;DHT22;5824;49.336;8.652;2024-02-28T06:49:11;4.10;1.00
11536;DHT22;5824;49.336;8.652;2024-02-28T06:51:36;4.30;1.00
11536;DHT22;5824;49.336;8.652;2024-02-28T06:54:03;4.20;1.00
11536;DHT22;5824;49.336;8.652;2024-02-28T06:56:30;4.20;1.00
11536;DHT22;5824;49.336;8.652;2024-02-28T06:58:55;4.30;1.00
11536;DHT22;5824;49.336;8.652;2024-02-28T07:01:21;4.50;1.00
11536;DHT22;5824;49.336;8.652;2024-02-28T07:03:46;4.40;1.00
11536;DHT22;5824;49.336;8.652;2024-02-28T07:06:12;4.40;1.00
11536;DHT22;5824;49.336;8.652;2024-02-28T07:08:37;4.80;1.00
11536;DHT22;5824;49.336;8.652;2024-02-28T07:11:03;4.70;1.00
11536;DHT22;5824;49.336;8.652;2024-02-28T07:13:29;4.80;1.00
11536;DHT22;5824;49.336;8.652;2024-02-28T07:15:54;4.80;1.00
11536;DHT22;5824;49.336;8.652;2024-02-28T07:18:20;4.80;1.00
11536;DHT22;5824;49.336;8.652;2024-02-28T07:20:46;5.10;1.00
11536;DHT22;5824;49.336;8.652;2024-02-28T07:23:11;4.80;1.00
11536;DHT22;5824;49.336;8.652;2024-02-28T07:25:37;5.20;1.00
11536;DHT22;5824;49.336;8.652;2024-02-28T07:28:03;4.90;1.00
11536;DHT22;5824;49.336;8.652;2024-02-28T07:30:28;4.90;1.00
11536;DHT22;5824;49.336;8.652;2024-02-28T07:32:54;5.10;1.00
11536;DHT22;5824;49.336;8.652;2024-02-28T07:35:20;5.10;1.00
11536;DHT22;5824;49.336;8.652;2024-02-28T07:37:46;5.30;1.00
11536;DHT22;5824;49.336;8.652;2024-02-28T07:40:12;5.20;1.00
11536;DHT22;5824;49.336;8.652;2024-02-28T07:42:37;5.20;1.00
11536;DHT22;5824;49.336;8.652;2024-02-28T07:45:03;5.30;1.00
11536;DHT22;5824;49.336;8.652;2024-02-28T07:47:29;5.30;1.00
11536;DHT22;5824;49.336;8.652;2024-02-28T07:49:55;5.60;1.00
11536;DHT22;5824;49.336;8.652;2024-02-28T07:52:20;5.50;1.00
11536;DHT22;5824;49.336;8.652;2024-02-28T07:54:46;5.60;1.00
11536;DHT22;5824;49.336;8.652;2024-02-28T07:57:12;5.60;1.00
11536;DHT22;5824;49.336;8.652;2024-02-28T07:59:44;5.80;1.00
11536;DHT22;5824;49.336;8.652;2024-02-28T08:02:10;5.90;1.00
11536;DHT22;5824;49.336;8.652;2024-02-28T08:04:38;5.70;1.00
11536;DHT22;5824;49.336;8.652;2024-02-28T08:07:04;5.80;1.00
11536;DHT22;5824;49.336;8.652;2024-02-28T08:09:29;5.90;1.00
11536;DHT22;5824;49.336;8.652;2024-02-28T08:11:55;6.00;1.00
11536;DHT22;5824;49.336;8.652;2024-02-28T08:14:20;6.00;1.00
11536;DHT22;5824;49.336;8.652;2024-02-28T08:16:46;6.10;1.00
11536;DHT22;5824;49.336;8.652;2024-02-28T08:19:12;6.30;1.00
11536;DHT22;5824;49.336;8.652;2024-02-28T08:21:37;6.40;1.00
11536;DHT22;5824;49.336;8.652;2024-02-28T08:24:03;6.70;1.00
11536;DHT22;5824;49.336;8.652;2024-02-28T08:26:30;6.70;1.00
11536;DHT22;5824;49.336;8.652;2024-02-28T08:28:56;6.80;1.00
11536;DHT22;5824;49.336;8.652;2024-02-28T08:31:22;6.90;1.00
11536;DHT22;5824;49.336;8.652;2024-02-28T08:33:47;7.10;1.00
11536;DHT22;5824;49.336;8.652;2024-02-28T08:36:13;7.10;1.00
11536;DHT22;5824;49.336;8.652;2024-02-28T08:38:40;7.20;1.00
11536;DHT22;5824;49.336;8.652;2024-02-28T08:41:05;7.40;1.00
11536;DHT22;5824;49.336;8.652;2024-02-28T08:43:32;7.70;1.00
11536;DHT22;5824;49.336;8.652;2024-02-28T08:45:57;7.70;1.00
11536;DHT22;5824;49.336;8.652;2024-02-28T08:48:23;7.90;1.00
11536;DHT22;5824;49.336;8.652;2024-02-28T08:50:48;7.90;1.00
11536;DHT22;5824;49.336;8.652;2024-02-28T08:53:14;8.20;1.00
11536;DHT22;5824;49.336;8.652;2024-02-28T08:55:39;8.20;1.00
11536;DHT22;5824;49.336;8.652;2024-02-28T08:58:05;8.30;1.00
11536;DHT22;5824;49.336;8.652;2024-02-28T09:00:30;8.50;1.00
11536;DHT22;5824;49.336;8.652;2024-02-28T09:02:56;9.40;1.00
11536;DHT22;5824;49.336;8.652;2024-02-28T09:05:22;11.00;1.00
11536;DHT22;5824;49.336;8.652;2024-02-28T09:07:48;12.00;1.00
11536;DHT22;5824;49.336;8.652;2024-02-28T09:10:16;13.00;1.00
11536;DHT22;5824;49.336;8.652;2024-02-28T09:12:46;13.70;1.00
11536;DHT22;5824;49.336;8.652;2024-02-28T09:15:12;14.60;1.00
11536;DHT22;5824;49.336;8.652;2024-02-28T09:17:38;14.60;1.00
11536;DHT22;5824;49.336;8.652;2024-02-28T09:20:03;14.00;1.00
11536;DHT22;5824;49.336;8.652;2024-02-28T09:22:31;13.40;1.00
11536;DHT22;5824;49.336;8.652;2024-02-28T09:24:57;13.10;1.00
11536;DHT22;5824;49.336;8.652;2024-02-28T09:27:22;12.80;1.00
11536;DHT22;5824;49.336;8.652;2024-02-28T09:29:49;12.70;1.00
11536;DHT22;5824;49.336;8.652;2024-02-28T09:32:15;12.70;1.00
11536;DHT22;5824;49.336;8.652;2024-02-28T09:34:41;12.10;1.00
11536;DHT22;5824;49.336;8.652;2024-02-28T09:37:06;11.70;1.00
11536;DHT22;5824;49.336;8.652;2024-02-28T09:39:32;11.60;1.00
11536;DHT22;5824;49.336;8.652;2024-02-28T09:41:57;11.50;1.00
11536;DHT22;5824;49.336;8.652;2024-02-28T09:44:23;11.30;1.00
11536;DHT22;5824;49.336;8.652;2024-02-28T09:46:52;11.80;1.00
11536;DHT22;5824;49.336;8.652;2024-02-28T09:49:18;13.40;1.00
11536;DHT22;5824;49.336;8.652;2024-02-28T09:51:44;13.80;1.00
11536;DHT22;5824;49.336;8.652;2024-02-28T09:54:12;15.20;1.00
11536;DHT22;5824;49.336;8.652;2024-02-28T09:56:38;16.10;1.00
11536;DHT22;5824;49.336;8.652;2024-02-28T09:59:04;16.40;1.00
11536;DHT22;5824;49.336;8.652;2024-02-28T10:01:30;16.20;1.00
11536;DHT22;5824;49.336;8.652;2024-02-28T10:03:57;15.50;1.00
11536;DHT22;5824;49.336;8.652;2024-02-28T10:06:24;15.20;1.00
11536;DHT22;5824;49.336;8.652;2024-02-28T10:08:50;14.70;1.00
11536;DHT22;5824;49.336;8.652;2024-02-28T10:11:23;15.90;1.00
11536;DHT22;5824;49.336;8.652;2024-02-28T10:13:50;15.80;1.00
11536;DHT22;5824;49.336;8.652;2024-02-28T10:16:15;15.70;1.00
11536;DHT22;5824;49.336;8.652;2024-02-28T10:18:45;15.80;1.00
11536;DHT22;5824;49.336;8.652;2024-02-28T10:21:11;15.50;1.00
11536;DHT22;5824;49.336;8.652;2024-02-28T10:23:44;17.30;1.00
11536;DHT22;5824;49.336;8.652;2024-02-28T10:26:11;17.80;1.00
11536;DHT22;5824;49.336;8.652;2024-02-28T10:28:40;18.70;1.00
11536;DHT22;5824;49.336;8.652;2024-02-28T10:31:06;20.30;1.00
11536;DHT22;5824;49.336;8.652;2024-02-28T10:33:36;20.30;1.00
11536;DHT22;5824;49.336;8.652;2024-02-28T10:36:05;20.30;1.00
11536;DHT22;5824;49.336;8.652;2024-02-28T10:38:31;21.20;1.00
11536;DHT22;5824;49.336;8.652;2024-02-28T10:41:02;22.60;1.00
11536;DHT22;5824;49.336;8.652;2024-02-28T10:43:31;24.40;1.00
11536;DHT22;5824;49.336;8.652;2024-02-28T10:46:00;24.60;1.00
11536;DHT22;5824;49.336;8.652;2024-02-28T10:48:26;25.20;1.00
11536;DHT22;5824;49.336;8.652;2024-02-28T10:50:52;25.40;1.00
11536;DHT22;5824;49.336;8.652;2024-02-28T10:53:21;25.10;1.00
11536;DHT22;5824;49.336;8.652;2024-02-28T10:55:49;25.10;1.00
11536;DHT22;5824;49.336;8.652;2024-02-28T10:58:15;25.50;1.00
11536;DHT22;5824;49.336;8.652;2024-02-28T11:00:42;25.90;1.00
11536;DHT22;5824;49.336;8.652;2024-02-28T11:03:10;26.30;1.00
11536;DHT22;5824;49.336;8.652;2024-02-28T11:05:41;26.40;1.00
11536;DHT22;5824;49.336;8.652;2024-02-28T11:08:11;26.30;1.00
11536;DHT22;5824;49.336;8.652;2024-02-28T11:10:42;26.00;1.00
11536;DHT22;5824;49.336;8.652;2024-02-28T11:13:10;26.10;1.00
11536;DHT22;5824;49.336;8.652;2024-02-28T11:15:36;26.10;1.00
11536;DHT22;5824;49.336;8.652;2024-02-28T11:18:09;26.70;1.00
11536;DHT22;5824;49.336;8.652;2024-02-28T11:20:35;26.50;1.00
11536;DHT22;5824;49.336;8.652;2024-02-28T11:23:00;27.30;1.00
11536;DHT22;5824;49.336;8.652;2024-02-28T11:25:26;27.90;1.00
11536;DHT22;5824;49.336;8.652;2024-02-28T11:27:52;29.10;1.00
11536;DHT22;5824;49.336;8.652;2024-02-28T11:30:19;29.60;1.00
11536;DHT22;5824;49.336;8.652;2024-02-28T11:32:44;28.70;1.00
11536;DHT22;5824;49.336;8.652;2024-02-28T11:35:10;28.60;1.00
11536;DHT22;5824;49.336;8.652;2024-02-28T11:37:38;28.30;1.00
11536;DHT22;5824;49.336;8.652;2024-02-28T11:40:07;28.00;1.00
11536;DHT22;5824;49.336;8.652;2024-02-28T11:42:34;27.40;1.00
11536;DHT22;5824;49.336;8.652;2024-02-28T11:45:00;28.40;1.00
11536;DHT22;5824;49.336;8.652;2024-02-28T11:47:28;28.60;1.00
11536;DHT22;5824;49.336;8.652;2024-02-28T11:50:01;28.40;1.00
11536;DHT22;5824;49.336;8.652;2024-02-28T11:52:27;29.00;1.00
11536;DHT22;5824;49.336;8.652;2024-02-28T11:54:52;29.40;1.00
11536;DHT22;5824;49.336;8.652;2024-02-28T11:57:19;30.00;1.00
11536;DHT22;5824;49.336;8.652;2024-02-28T11:59:44;29.70;1.00
11536;DHT22;5824;49.336;8.652;2024-02-28T12:02:15;30.50;1.00
11536;DHT22;5824;49.336;8.652;2024-02-28T12:04:41;31.20;1.00
11536;DHT22;5824;49.336;8.652;2024-02-28T12:07:08;31.80;1.00
11536;DHT22;5824;49.336;8.652;2024-02-28T12:09:34;32.00;1.00
11536;DHT22;5824;49.336;8.652;2024-02-28T12:12:01;31.80;1.00
11536;DHT22;5824;49.336;8.652;2024-02-28T12:14:27;31.60;1.00
11536;DHT22;5824;49.336;8.652;2024-02-28T12:16:53;31.90;1.00
11536;DHT22;5824;49.336;8.652;2024-02-28T12:19:18;32.10;1.00
11536;DHT22;5824;49.336;8.652;2024-02-28T12:21:46;31.50;1.00
11536;DHT22;5824;49.336;8.652;2024-02-28T12:24:12;30.80;1.00
11536;DHT22;5824;49.336;8.652;2024-02-28T12:26:38;31.20;1.00
11536;DHT22;5824;49.336;8.652;2024-02-28T12:29:04;30.20;1.00
11536;DHT22;5824;49.336;8.652;2024-02-28T12:31:29;29.90;1.00
11536;DHT22;5824;49.336;8.652;2024-02-28T12:33:55;30.20;1.00
11536;DHT22;5824;49.336;8.652;2024-02-28T12:36:21;29.40;1.00
11536;DHT22;5824;49.336;8.652;2024-02-28T12:38:47;28.50;1.00
11536;DHT22;5824;49.336;8.652;2024-02-28T12:41:13;28.70;1.00
11536;DHT22;5824;49.336;8.652;2024-02-28T12:46:05;29.70;1.00
11536;DHT22;5824;49.336;8.652;2024-02-28T12:48:36;30.20;1.00
11536;DHT22;5824;49.336;8.652;2024-02-28T12:51:02;30.30;1.00
11536;DHT22;5824;49.336;8.652;2024-02-28T12:53:28;30.80;1.00
11536;DHT22;5824;49.336;8.652;2024-02-28T12:55:53;30.70;1.00
11536;DHT22;5824;49.336;8.652;2024-02-28T12:58:19;30.20;1.00
11536;DHT22;5824;49.336;8.652;2024-02-28T13:00:44;30.50;1.00
11536;DHT22;5824;49.336;8.652;2024-02-28T13:03:10;29.20;1.00
11536;DHT22;5824;49.336;8.652;2024-02-28T13:05:35;29.20;1.00
11536;DHT22;5824;49.336;8.652;2024-02-28T13:08:01;29.80;1.00
11536;DHT22;5824;49.336;8.652;2024-02-28T13:10:26;29.40;1.00
11536;DHT22;5824;49.336;8.652;2024-02-28T13:12:52;28.60;1.00
11536;DHT22;5824;49.336;8.652;2024-02-28T13:15:18;28.30;1.00
11536;DHT22;5824;49.336;8.652;2024-02-28T13:17:43;28.30;1.00
11536;DHT22;5824;49.336;8.652;2024-02-28T13:20:09;28.70;1.00
11536;DHT22;5824;49.336;8.652;2024-02-28T13:22:35;28.90;1.00
11536;DHT22;5824;49.336;8.652;2024-02-28T13:25:00;27.70;1.00
11536;DHT22;5824;49.336;8.652;2024-02-28T13:27:26;26.50;1.00
11536;DHT22;5824;49.336;8.652;2024-02-28T13:29:52;25.20;1.00
11536;DHT22;5824;49.336;8.652;2024-02-28T13:32:17;24.20;1.00
11536;DHT22;5824;49.336;8.652;2024-02-28T13:34:43;23.40;1.00
11536;DHT22;5824;49.336;8.652;2024-02-28T13:37:09;23.00;1.00
11536;DHT22;5824;49.336;8.652;2024-02-28T13:39:34;22.10;1.00
11536;DHT22;5824;49.336;8.652;2024-02-28T13:42:00;21.20;1.00
11536;DHT22;5824;49.336;8.652;2024-02-28T13:44:25;20.30;1.00
11536;DHT22;5824;49.336;8.652;2024-02-28T13:46:53;20.20;1.00
11536;DHT22;5824;49.336;8.652;2024-02-28T13:49:19;19.90;1.00
11536;DHT22;5824;49.336;8.652;2024-02-28T13:51:45;19.70;1.00
11536;DHT22;5824;49.336;8.652;2024-02-28T13:54:11;19.60;1.00
11536;DHT22;5824;49.336;8.652;2024-02-28T13:56:37;19.50;1.00
11536;DHT22;5824;49.336;8.652;2024-02-28T13:59:03;19.50;1.00
11536;DHT22;5824;49.336;8.652;2024-02-28T14:01:28;19.70;1.00
11536;DHT22;5824;49.336;8.652;2024-02-28T14:03:54;19.40;1.00
11536;DHT22;5824;49.336;8.652;2024-02-28T14:06:19;19.40;1.00
11536;DHT22;5824;49.336;8.652;2024-02-28T14:08:45;19.30;1.00
11536;DHT22;5824;49.336;8.652;2024-02-28T14:11:11;18.90;1.00
11536;DHT22;5824;49.336;8.652;2024-02-28T14:13:36;18.50;1.00
11536;DHT22;5824;49.336;8.652;2024-02-28T14:16:03;18.40;1.00
11536;DHT22;5824;49.336;8.652;2024-02-28T14:18:29;17.80;1.00
11536;DHT22;5824;49.336;8.652;2024-02-28T14:20:54;17.50;1.00
11536;DHT22;5824;49.336;8.652;2024-02-28T14:23:20;16.30;1.00
11536;DHT22;5824;49.336;8.652;2024-02-28T14:25:46;17.10;1.00
11536;DHT22;5824;49.336;8.652;2024-02-28T14:28:11;16.90;1.00
11536;DHT22;5824;49.336;8.652;2024-02-28T14:30:38;16.70;1.00
11536;DHT22;5824;49.336;8.652;2024-02-28T14:35:29;16.30;1.00
11536;DHT22;5824;49.336;8.652;2024-02-28T14:37:55;16.40;1.00
11536;DHT22;5824;49.336;8.652;2024-02-28T14:40:20;16.10;1.00
11536;DHT22;5824;49.336;8.652;2024-02-28T14:42:46;16.10;1.00
11536;DHT22;5824;49.336;8.652;2024-02-28T14:45:12;16.20;1.00
11536;DHT22;5824;49.336;8.652;2024-02-28T14:47:42;16.20;1.00
11536;DHT22;5824;49.336;8.652;2024-02-28T14:50:08;16.00;1.00
11536;DHT22;5824;49.336;8.652;2024-02-28T14:52:40;15.90;1.00
11536;DHT22;5824;49.336;8.652;2024-02-28T14:55:07;15.80;1.00
11536;DHT22;5824;49.336;8.652;2024-02-28T14:57:33;15.70;1.00
11536;DHT22;5824;49.336;8.652;2024-02-28T14:59:59;15.40;1.00
11536;DHT22;5824;49.336;8.652;2024-02-28T15:02:25;15.10;1.00
11536;DHT22;5824;49.336;8.652;2024-02-28T15:04:51;14.90;1.00
11536;DHT22;5824;49.336;8.652;2024-02-28T15:07:17;14.70;1.00
11536;DHT22;5824;49.336;8.652;2024-02-28T15:09:43;14.70;1.00
11536;DHT22;5824;49.336;8.652;2024-02-28T15:12:08;14.60;1.00
11536;DHT22;5824;49.336;8.652;2024-02-28T15:14:34;14.50;1.00
11536;DHT22;5824;49.336;8.652;2024-02-28T15:17:00;14.50;1.00
11536;DHT22;5824;49.336;8.652;2024-02-28T15:19:27;14.60;1.00
11536;DHT22;5824;49.336;8.652;2024-02-28T15:21:53;14.50;1.00
11536;DHT22;5824;49.336;8.652;2024-02-28T15:24:19;14.30;1.00
11536;DHT22;5824;49.336;8.652;2024-02-28T15:26:44;14.30;1.00
11536;DHT22;5824;49.336;8.652;2024-02-28T15:29:10;14.20;1.00
11536;DHT22;5824;49.336;8.652;2024-02-28T15:31:37;14.20;1.00
11536;DHT22;5824;49.336;8.652;2024-02-28T15:34:04;14.10;1.00
11536;DHT22;5824;49.336;8.652;2024-02-28T15:36:29;14.00;1.00
11536;DHT22;5824;49.336;8.652;2024-02-28T15:38:55;13.80;1.00
11536;DHT22;5824;49.336;8.652;2024-02-28T15:41:20;13.90;1.00
11536;DHT22;5824;49.336;8.652;2024-02-28T15:43:47;14.10;1.00
11536;DHT22;5824;49.336;8.652;2024-02-28T15:46:13;14.10;1.00
11536;DHT22;5824;49.336;8.652;2024-02-28T15:48:40;14.00;1.00
11536;DHT22;5824;49.336;8.652;2024-02-28T15:51:05;14.00;1.00
11536;DHT22;5824;49.336;8.652;2024-02-28T15:53:31;13.60;1.00
11536;DHT22;5824;49.336;8.652;2024-02-28T15:55:57;13.60;1.00
11536;DHT22;5824;49.336;8.652;2024-02-28T15:58:23;13.70;1.00
11536;DHT22;5824;49.336;8.652;2024-02-28T16:00:49;13.60;1.00
11536;DHT22;5824;49.336;8.652;2024-02-28T16:03:16;13.40;1.00
11536;DHT22;5824;49.336;8.652;2024-02-28T16:05:41;13.40;1.00
11536;DHT22;5824;49.336;8.652;2024-02-28T16:08:08;13.20;1.00
11536;DHT22;5824;49.336;8.652;2024-02-28T16:10:33;13.00;1.00